createdAt,value
2019-04-29T00:04:17.637Z,7.47
2019-04-29T00:12:02.346Z,8.10
2019-04-29T00:17:51.914Z,8.13
2019-04-29T00:20:40.134Z,7.43
2019-04-29T00:23:09.455Z,7.73
2019-04-29T00:25:38.787Z,7.47
2019-04-29T00:28:08.105Z,7.70
2019-04-29T00:30:37.425Z,7.40
2019-04-29T00:33:06.731Z,7.80
2019-04-29T00:35:55.097Z,8.37
2019-04-29T00:41:51.898Z,7.77
2019-04-29T00:44:40.249Z,7.87
2019-04-29T00:47:09.551Z,8.03
2019-04-29T00:49:38.851Z,7.63
2019-04-29T00:52:08.152Z,7.70
2019-04-29T00:54:56.358Z,8.63
2019-04-29T00:57:25.666Z,8.13
2019-04-29T01:00:33.507Z,7.73
2019-04-29T01:03:21.869Z,7.57
2019-04-29T01:05:51.228Z,7.60
2019-04-29T01:08:20.541Z,7.97
2019-04-29T01:10:49.869Z,7.70
2019-04-29T01:13:19.237Z,7.70
2019-04-29T01:16:07.557Z,7.60
2019-04-29T01:18:36.872Z,7.83
2019-04-29T01:21:06.184Z,7.73
2019-04-29T01:23:35.505Z,7.83
2019-04-29T01:34:27.929Z,7.50
2019-04-29T01:36:57.235Z,7.57
2019-04-29T01:40:05.904Z,7.30
2019-04-29T01:42:38.417Z,6.90
2019-04-29T01:45:07.825Z,7.07
2019-04-29T01:47:37.118Z,6.60
2019-04-29T01:50:45.780Z,7.00
2019-04-29T01:53:15.109Z,7.77
2019-04-29T01:58:32.671Z,7.07
2019-04-29T02:01:02.043Z,6.87
2019-04-29T02:03:31.355Z,6.60
2019-04-29T02:06:00.667Z,6.30
2019-04-29T02:08:29.974Z,7.10
2019-04-29T02:10:59.283Z,6.77
2019-04-29T02:13:28.555Z,6.27
2019-04-29T02:15:57.891Z,6.60
2019-04-29T02:18:27.193Z,6.87
2019-04-29T02:20:56.498Z,6.53
2019-04-29T02:26:17.361Z,6.37
2019-04-29T02:28:46.666Z,6.17
2019-04-29T02:31:34.883Z,6.73
2019-04-29T02:34:04.199Z,6.40
2019-04-29T02:36:52.554Z,6.83
2019-04-29T02:39:40.776Z,6.90
2019-04-29T02:42:28.975Z,5.50
2019-04-29T02:47:37.212Z,6.43
2019-04-29T02:52:56.439Z,6.20
2019-04-29T02:58:30.535Z,5.97
2019-04-29T03:01:18.890Z,5.90
2019-04-29T03:04:07.137Z,5.57
2019-04-29T03:06:36.447Z,5.60
2019-04-29T03:09:45.428Z,5.42
2019-04-29T03:12:14.835Z,5.97
2019-04-29T03:14:44.162Z,5.77
2019-04-29T03:17:18.070Z,5.50
2019-04-29T03:20:03.542Z,5.07
2019-04-29T03:23:12.227Z,5.43
2019-04-29T03:25:41.586Z,5.00
2019-04-29T03:28:10.887Z,5.50
2019-04-29T03:30:40.172Z,5.70
2019-04-29T03:33:09.475Z,6.20
2019-04-29T03:35:38.785Z,5.83
2019-04-29T03:38:08.165Z,6.50
2019-04-29T03:40:37.479Z,6.67
2019-04-29T03:43:06.753Z,5.97
2019-04-29T03:48:24.420Z,5.80
2019-04-29T03:50:53.778Z,5.50
2019-04-29T03:53:42.123Z,5.90
2019-04-29T03:56:11.456Z,5.97
2019-04-29T03:58:40.734Z,5.80
2019-04-29T04:01:28.986Z,5.87
2019-04-29T04:04:17.182Z,5.80
2019-04-29T04:07:05.401Z,5.87
2019-04-29T04:09:35.527Z,5.60
2019-04-29T04:12:04.837Z,6.17
2019-04-29T04:14:34.198Z,6.07
2019-04-29T04:17:22.390Z,5.77
2019-04-29T04:19:51.813Z,5.73
2019-04-29T04:22:21.118Z,5.50
2019-04-29T04:24:52.628Z,5.40
2019-04-29T04:29:56.429Z,5.30
2019-04-29T04:32:25.745Z,5.77
2019-04-29T04:34:55.090Z,4.90
2019-04-29T04:37:24.399Z,4.90
2019-04-29T04:39:53.730Z,4.80
2019-04-29T04:42:23.033Z,4.83
2019-04-29T04:44:52.342Z,4.60
2019-04-29T04:47:21.836Z,4.83
2019-04-29T04:49:51.120Z,4.23
2019-04-29T04:52:20.485Z,3.93
2019-04-29T04:57:26.768Z,3.80
2019-04-29T04:59:56.176Z,4.07
2019-04-29T05:05:02.377Z,4.17
2019-04-29T05:07:31.709Z,4.13
2019-04-29T05:10:01.127Z,3.60
2019-04-29T05:12:30.461Z,3.60
2019-04-29T05:17:34.569Z,3.53
2019-04-29T05:20:03.998Z,3.40
2019-04-29T05:22:33.355Z,3.63
2019-04-29T05:25:02.715Z,3.37
2019-04-29T05:27:32.050Z,2.93
2019-04-29T05:30:01.392Z,2.47
2019-04-29T05:32:30.744Z,2.97
2019-04-29T05:38:09.697Z,2.60
2019-04-29T05:40:58.052Z,2.40
2019-04-29T05:43:46.454Z,2.40
2019-04-29T05:46:34.659Z,2.57
2019-04-29T05:49:07.195Z,2.23
2019-04-29T05:51:57.498Z,2.00
2019-04-29T05:54:26.907Z,2.33
2019-04-29T05:56:56.309Z,2.30
2019-04-29T05:59:25.614Z,1.83
2019-04-29T06:01:54.914Z,1.83
2019-04-29T06:04:43.302Z,2.00
2019-04-29T06:07:16.850Z,1.90
2019-04-29T06:12:32.054Z,1.53
2019-04-29T06:15:01.410Z,1.77
2019-04-29T06:17:31.753Z,1.97
2019-04-29T06:20:22.729Z,2.43
2019-04-29T06:22:51.138Z,2.10
2019-04-29T06:25:20.445Z,1.70
2019-04-29T06:27:49.758Z,1.67
2019-04-29T06:30:19.250Z,1.90
2019-04-29T06:32:48.537Z,2.10
2019-04-29T06:35:17.836Z,2.13
2019-04-29T06:38:06.216Z,1.90
2019-04-29T06:40:36.960Z,1.77
2019-04-29T06:43:06.753Z,1.73
2019-04-29T06:45:36.039Z,1.77
2019-04-29T06:48:05.365Z,1.50
2019-04-29T06:50:34.675Z,1.60
2019-04-29T06:53:04.432Z,1.70
2019-04-29T06:55:35.029Z,1.27
2019-04-29T06:58:04.353Z,1.50
2019-04-29T07:00:33.782Z,1.47
2019-04-29T07:03:03.152Z,1.33
2019-04-29T07:08:07.854Z,1.70
2019-04-29T07:11:01.232Z,1.63
2019-04-29T07:16:21.956Z,1.67
2019-04-29T07:21:41.830Z,1.47
2019-04-29T07:24:11.445Z,1.43
2019-04-29T07:26:40.768Z,1.77
2019-04-29T07:29:10.101Z,1.40
2019-04-29T07:31:39.426Z,1.83
2019-04-29T07:34:48.104Z,1.70
2019-04-29T07:43:13.070Z,1.60
2019-04-29T07:46:03.718Z,1.50
2019-04-29T07:48:32.442Z,1.63
2019-04-29T07:51:04.232Z,1.50
2019-04-29T07:53:40.212Z,1.70
2019-04-29T07:56:06.371Z,1.60
2019-04-29T07:58:35.161Z,1.70
2019-04-29T08:03:39.720Z,1.50
2019-04-29T08:09:15.011Z,2.33
2019-04-29T08:11:44.440Z,1.97
2019-04-29T08:14:13.959Z,2.37
2019-04-29T08:16:43.282Z,2.57
2019-04-29T08:19:12.591Z,3.00
2019-04-29T08:21:45.493Z,2.90
2019-04-29T08:24:15.790Z,3.20
2019-04-29T08:26:47.354Z,3.40
2019-04-29T08:31:51.784Z,3.00
2019-04-29T08:34:23.123Z,3.30
2019-04-29T08:36:52.217Z,3.60
2019-04-29T08:39:25.042Z,3.70
2019-04-29T08:41:52.625Z,3.80
2019-04-29T08:47:23.055Z,3.50
2019-04-29T08:49:52.458Z,3.47
2019-04-29T08:52:21.750Z,4.33
2019-04-29T08:54:55.381Z,4.30
2019-04-29T08:57:22.084Z,4.93
2019-04-29T08:59:51.395Z,3.85
2019-04-29T09:02:33.741Z,4.40
2019-04-29T09:04:53.714Z,4.17
2019-04-29T09:07:23.259Z,4.43
2019-04-29T09:09:56.265Z,3.97
2019-04-29T09:12:29.038Z,4.33
2019-04-29T09:14:55.950Z,3.75
2019-04-29T09:17:25.237Z,3.80
2019-04-29T09:19:54.544Z,3.83
2019-04-29T09:25:32.800Z,4.43
2019-04-29T09:30:54.855Z,4.75
2019-04-29T09:33:24.186Z,4.20
2019-04-29T09:35:53.493Z,3.35
2019-04-29T09:38:22.798Z,3.95
2019-04-29T09:41:11.056Z,4.10
2019-04-29T09:44:04.060Z,4.17
2019-04-29T09:46:49.262Z,3.90
2019-04-29T09:49:18.590Z,4.05
2019-04-29T09:51:47.896Z,4.08
2019-04-29T09:54:36.107Z,4.08
2019-04-29T10:02:59.049Z,4.10
2019-04-29T10:05:47.270Z,4.37
2019-04-29T10:08:16.735Z,4.10
2019-04-29T10:10:46.437Z,4.40
2019-04-29T10:13:15.784Z,4.17
2019-04-29T10:16:04.031Z,4.10
2019-04-29T10:18:52.248Z,3.70
2019-04-29T10:23:56.890Z,4.28
2019-04-29T10:26:26.212Z,3.85
2019-04-29T10:31:48.169Z,4.53
2019-04-29T10:37:46.729Z,3.77
2019-04-29T10:43:53.463Z,3.92
2019-04-29T10:46:39.433Z,3.47
2019-04-29T10:49:27.653Z,4.05
2019-04-29T10:52:17.451Z,4.15
2019-04-29T10:54:51.597Z,4.15
2019-04-29T11:06:00.551Z,3.52
2019-04-29T11:09:04.555Z,3.65
2019-04-29T11:17:05.820Z,3.30
2019-04-29T11:19:39.534Z,4.30
2019-04-29T11:25:19.937Z,4.25
2019-04-29T11:30:41.669Z,4.37
2019-04-29T11:36:19.764Z,4.15
2019-04-29T11:38:49.064Z,4.20
2019-04-29T11:41:19.955Z,5.00
2019-04-29T11:43:51.286Z,4.80
2019-04-29T11:52:07.776Z,4.37
2019-04-29T11:54:18.009Z,4.60
2019-04-29T11:56:46.873Z,5.53
2019-04-29T11:59:35.078Z,5.08
2019-04-29T12:05:14.158Z,4.75
2019-04-29T12:07:43.487Z,4.00
2019-04-29T12:10:12.887Z,4.72
2019-04-29T12:12:43.695Z,5.37
2019-04-29T12:15:32.119Z,4.60
2019-04-29T12:18:20.323Z,5.58
2019-04-29T12:21:08.650Z,4.60
2019-04-29T12:23:37.907Z,5.00
2019-04-29T12:26:26.150Z,5.30
2019-04-29T12:32:15.937Z,5.00
2019-04-29T12:35:04.157Z,5.33
2019-04-29T12:37:52.367Z,5.80
2019-04-29T12:40:40.646Z,5.05
2019-04-29T12:43:28.840Z,4.47
2019-04-29T12:48:52.734Z,5.08
2019-04-29T12:51:22.047Z,5.25
2019-04-29T12:53:51.362Z,5.33
2019-04-29T13:01:58.789Z,5.60
2019-04-29T13:04:49.884Z,5.53
2019-04-29T13:07:36.760Z,5.60
2019-04-29T13:10:32.145Z,5.30
2019-04-29T13:13:01.435Z,5.75
2019-04-29T13:15:49.753Z,5.15
2019-04-29T13:21:24.174Z,5.55
2019-04-29T13:24:12.166Z,5.28
2019-04-29T13:26:28.366Z,5.10
2019-04-29T13:29:01.198Z,4.92
2019-04-29T13:31:38.007Z,5.33
2019-04-29T13:36:37.989Z,5.05
2019-04-29T13:39:39.093Z,4.80
2019-04-29T13:41:58.401Z,5.53
2019-04-29T13:45:05.444Z,4.97
2019-04-29T13:47:37.288Z,5.72
2019-04-29T13:53:01.875Z,5.70
2019-04-29T13:55:47.629Z,5.37
2019-04-29T13:58:13.730Z,5.40
2019-04-29T14:01:02.051Z,4.47
2019-04-29T14:06:14.409Z,4.83
2019-04-29T14:08:43.604Z,5.17
2019-04-29T14:11:12.931Z,4.95
2019-04-29T14:16:30.505Z,5.67
2019-04-29T14:18:59.782Z,5.12
2019-04-29T14:21:30.192Z,4.80
2019-04-29T14:24:00.328Z,5.17
2019-04-29T14:26:29.700Z,5.45
2019-04-29T14:31:34.270Z,4.78
2019-04-29T14:37:19.740Z,4.92
2019-04-29T14:39:53.129Z,5.17
2019-04-29T14:45:23.264Z,5.53
2019-04-29T14:48:11.457Z,4.70
2019-04-29T14:53:19.533Z,4.85
2019-04-29T14:55:48.285Z,5.03
2019-04-29T14:58:17.655Z,5.17
2019-04-29T15:01:06.514Z,4.75
2019-04-29T15:06:42.036Z,4.35
2019-04-29T15:12:52.719Z,4.72
2019-04-29T15:16:03.838Z,4.95
2019-04-29T15:18:48.846Z,4.83
2019-04-29T15:21:34.447Z,4.78
2019-04-29T15:24:03.998Z,5.42
2019-04-29T15:26:52.343Z,5.30
2019-04-29T15:29:21.637Z,4.92
2019-04-29T15:31:50.931Z,4.90
2019-04-29T15:36:54.984Z,4.85
2019-04-29T15:39:25.307Z,4.60
2019-04-29T15:41:55.494Z,4.80
2019-04-29T15:44:26.540Z,5.08
2019-04-29T15:46:57.397Z,5.10
2019-04-29T15:49:26.692Z,4.90
2019-04-29T15:51:55.993Z,4.92
2019-04-29T15:54:26.136Z,4.95
2019-04-29T15:56:56.310Z,5.20
2019-04-29T15:59:25.629Z,5.53
2019-04-29T16:01:59.214Z,5.60
2019-04-29T16:07:38.432Z,5.58
2019-04-29T16:15:41.087Z,4.65
2019-04-29T16:18:14.418Z,4.87
2019-04-29T16:20:41.572Z,5.28
2019-04-29T16:23:10.881Z,5.60
2019-04-29T16:25:40.941Z,4.92
2019-04-29T16:28:11.244Z,4.72
2019-04-29T16:30:40.609Z,4.97
2019-04-29T16:33:13.910Z,5.37
2019-04-29T16:35:43.303Z,5.62
2019-04-29T16:38:13.818Z,5.50
2019-04-29T16:43:39.400Z,5.45
2019-04-29T16:48:58.646Z,4.60
2019-04-29T16:51:27.996Z,5.10
2019-04-29T16:53:57.443Z,5.10
2019-04-29T16:56:45.686Z,5.72
2019-04-29T16:59:15.302Z,5.58
2019-04-29T17:01:44.605Z,5.30
2019-04-29T17:04:13.968Z,5.83
2019-04-29T17:06:52.464Z,5.30
2019-04-29T17:09:33.246Z,5.00
2019-04-29T17:12:02.750Z,4.95
2019-04-29T17:14:32.113Z,4.97
2019-04-29T17:22:35.676Z,4.83
2019-04-29T17:25:02.917Z,4.83
2019-04-29T17:27:51.099Z,5.28
2019-04-29T17:33:49.212Z,5.30
2019-04-29T17:35:14.560Z,5.25
2019-04-29T17:35:19.118Z,5.50
2019-04-29T17:36:11.474Z,5.45
2019-04-29T17:38:40.853Z,6.27
2019-04-29T17:41:10.168Z,5.50
2019-04-29T17:43:58.424Z,5.45
2019-04-29T17:46:46.703Z,5.67
2019-04-29T17:49:34.948Z,6.00
2019-04-29T17:57:52.426Z,5.25
2019-04-29T18:00:43.918Z,5.92
2019-04-29T18:03:36.405Z,5.42
2019-04-29T18:06:24.456Z,6.10
2019-04-29T18:09:10.705Z,5.40
2019-04-29T18:11:50.437Z,5.55
2019-04-29T18:20:08.553Z,5.65
2019-04-29T18:22:54.869Z,5.57
2019-04-29T18:25:31.236Z,6.22
2019-04-29T18:28:00.459Z,6.25
2019-04-29T18:30:35.673Z,6.70
2019-04-29T18:33:02.269Z,5.37
2019-04-29T18:35:31.567Z,5.80
2019-04-29T18:38:19.970Z,5.83
2019-04-29T18:40:49.528Z,5.45
2019-04-29T18:43:39.391Z,5.70
2019-04-29T18:46:12.393Z,5.70
2019-04-29T18:48:40.537Z,5.33
2019-04-29T18:51:09.920Z,5.78
2019-04-29T18:53:39.297Z,5.55
2019-04-29T18:56:08.728Z,5.40
2019-04-29T18:58:38.101Z,5.65
2019-04-29T19:01:07.519Z,5.93
2019-04-29T19:03:55.784Z,6.10
2019-04-29T19:09:01.840Z,5.45
2019-04-29T19:11:32.818Z,6.47
2019-04-29T19:14:02.904Z,5.63
2019-04-29T19:16:32.271Z,5.80
2019-04-29T19:19:01.974Z,5.73
2019-04-29T19:21:32.866Z,5.50
2019-04-29T19:24:02.197Z,6.70
2019-04-29T19:26:31.538Z,6.30
2019-04-29T19:29:01.329Z,6.50
2019-04-29T19:31:36.819Z,5.70
2019-04-29T19:34:02.999Z,5.23
2019-04-29T19:36:32.353Z,6.13
2019-04-29T19:39:01.705Z,6.13
2019-04-29T19:41:31.039Z,6.17
2019-04-29T19:46:48.660Z,6.07
2019-04-29T19:49:17.993Z,5.80
2019-04-29T19:51:47.516Z,6.60
2019-04-29T19:54:23.785Z,5.80
2019-04-29T19:56:47.976Z,5.60
2019-04-29T19:59:18.173Z,6.40
2019-04-29T20:01:51.392Z,6.17
2019-04-29T20:04:38.758Z,6.10
2019-04-29T20:07:10.691Z,6.10
2019-04-29T20:09:41.874Z,6.40
2019-04-29T20:15:02.215Z,6.50
2019-04-29T20:17:50.575Z,5.13
2019-04-29T20:20:39.283Z,6.50
2019-04-29T20:23:08.786Z,5.30
2019-04-29T20:25:38.920Z,6.70
2019-04-29T20:28:16.957Z,6.47
2019-04-29T20:30:40.391Z,6.43
2019-04-29T20:33:12.631Z,6.37
2019-04-29T20:35:45.390Z,5.93
2019-04-29T20:41:00.437Z,5.70
2019-04-29T20:43:31.469Z,5.90
2019-04-29T20:46:02.430Z,6.70
2019-04-29T20:48:32.048Z,6.33
2019-04-29T20:51:11.467Z,6.33
2019-04-29T20:56:12.974Z,6.50
2019-04-29T20:58:44.468Z,5.70
2019-04-29T21:04:09.450Z,6.53
2019-04-29T21:06:51.333Z,6.50
2019-04-29T21:14:37.927Z,6.57
2019-04-29T21:19:59.498Z,6.33
2019-04-29T21:22:28.797Z,6.67
2019-04-29T21:24:58.106Z,6.13
2019-04-29T21:27:27.414Z,7.13
2019-04-29T21:29:56.737Z,6.43
2019-04-29T21:32:26.021Z,6.30
2019-04-29T21:35:18.175Z,6.87
2019-04-29T21:46:02.415Z,6.73
2019-04-29T21:48:33.661Z,6.63
2019-04-29T21:51:06.767Z,7.00
2019-04-29T21:53:36.503Z,6.80
2019-04-29T21:56:09.190Z,6.93
2019-04-29T21:58:35.987Z,7.20
2019-04-29T22:01:44.919Z,7.20
2019-04-29T22:04:14.276Z,7.40
2019-04-29T22:06:43.579Z,7.27
2019-04-29T22:11:53.260Z,8.10
2019-04-29T22:14:22.562Z,6.50
2019-04-29T22:16:54.368Z,7.10
2019-04-29T22:19:26.138Z,7.77
2019-04-29T22:21:59.052Z,6.97
2019-04-29T22:24:26.277Z,7.43
2019-04-29T22:27:03.626Z,7.27
2019-04-29T22:29:27.036Z,7.57
2019-04-29T22:34:31.823Z,7.53
2019-04-29T22:37:01.371Z,6.67
2019-04-29T22:39:49.697Z,7.33
2019-04-29T22:45:07.841Z,7.07
2019-04-29T22:47:37.154Z,6.50
2019-04-29T22:50:47.419Z,7.33
2019-04-29T22:53:16.834Z,7.30
2019-04-29T22:55:46.191Z,7.90
2019-04-29T22:58:15.493Z,7.50
2019-04-29T23:00:44.828Z,7.87
2019-04-29T23:06:06.890Z,7.67
2019-04-29T23:11:21.685Z,8.07
2019-04-29T23:13:50.978Z,7.63
2019-04-29T23:16:20.297Z,7.40
2019-04-29T23:19:09.920Z,7.47
2019-04-29T23:21:58.438Z,7.70
2019-04-29T23:24:51.029Z,6.90
2019-04-29T23:27:19.610Z,6.77
2019-04-29T23:29:48.675Z,6.83
2019-04-29T23:32:17.998Z,7.30
2019-04-29T23:34:47.290Z,7.60
2019-04-29T23:37:19.409Z,6.47
2019-04-29T23:39:47.624Z,7.37
2019-04-29T23:42:16.939Z,7.50
2019-04-29T23:44:46.238Z,7.70
2019-04-29T23:47:35.713Z,7.10
2019-04-29T23:53:06.566Z,6.40
2019-04-29T23:55:35.861Z,6.57
2019-04-29T23:58:24.092Z,6.53
